sensor_id;sensor_type;location;lat;lon;timestamp;P1;durP1;ratioP1;P2;durP2;ratioP2
53519;SDS011;39397;53.204;5.778;2022-09-21T00:00:46;10.88;;;5.00;;
53519;SDS011;39397;53.204;5.778;2022-09-21T00:03:13;8.68;;;4.55;;
53519;SDS011;39397;53.204;5.778;2022-09-21T00:05:39;8.63;;;4.15;;
53519;SDS011;39397;53.204;5.778;2022-09-21T00:08:05;11.23;;;4.68;;
53519;SDS011;39397;53.204;5.778;2022-09-21T00:10:32;11.35;;;4.72;;
53519;SDS011;39397;53.204;5.778;2022-09-21T00:12:59;9.93;;;4.93;;
53519;SDS011;39397;53.204;5.778;2022-09-21T00:15:27;8.75;;;4.22;;
53519;SDS011;39397;53.204;5.778;2022-09-21T00:17:54;10.35;;;4.32;;
53519;SDS011;39397;53.204;5.778;2022-09-21T00:20:21;11.10;;;4.43;;
53519;SDS011;39397;53.204;5.778;2022-09-21T00:22:49;13.63;;;4.07;;
53519;SDS011;39397;53.204;5.778;2022-09-21T00:25:15;10.35;;;4.20;;
53519;SDS011;39397;53.204;5.778;2022-09-21T00:27:41;8.43;;;3.90;;
53519;SDS011;39397;53.204;5.778;2022-09-21T00:30:07;10.38;;;4.20;;
53519;SDS011;39397;53.204;5.778;2022-09-21T00:32:35;11.05;;;4.20;;
53519;SDS011;39397;53.204;5.778;2022-09-21T00:35:03;7.45;;;3.58;;
53519;SDS011;39397;53.204;5.778;2022-09-21T00:37:29;10.40;;;4.10;;
53519;SDS011;39397;53.204;5.778;2022-09-21T00:39:55;8.07;;;3.80;;
53519;SDS011;39397;53.204;5.778;2022-09-21T00:44:51;9.80;;;3.97;;
53519;SDS011;39397;53.204;5.778;2022-09-21T00:47:19;12.80;;;4.20;;
53519;SDS011;39397;53.204;5.778;2022-09-21T00:49:47;9.38;;;3.85;;
53519;SDS011;39397;53.204;5.778;2022-09-21T00:52:16;11.77;;;4.03;;
53519;SDS011;39397;53.204;5.778;2022-09-21T00:54:44;14.68;;;4.32;;
53519;SDS011;39397;53.204;5.778;2022-09-21T00:57:16;14.07;;;4.90;;
53519;SDS011;39397;53.204;5.778;2022-09-21T00:59:48;14.10;;;4.63;;
53519;SDS011;39397;53.204;5.778;2022-09-21T01:02:16;9.55;;;4.70;;
53519;SDS011;39397;53.204;5.778;2022-09-21T01:04:43;14.35;;;4.30;;
53519;SDS011;39397;53.204;5.778;2022-09-21T01:07:10;7.50;;;4.18;;
53519;SDS011;39397;53.204;5.778;2022-09-21T01:09:42;10.55;;;4.15;;
53519;SDS011;39397;53.204;5.778;2022-09-21T01:15:18;10.18;;;4.22;;
53519;SDS011;39397;53.204;5.778;2022-09-21T01:31:10;12.93;;;4.55;;
53519;SDS011;39397;53.204;5.778;2022-09-21T01:33:43;13.90;;;4.43;;
53519;SDS011;39397;53.204;5.778;2022-09-21T01:36:14;15.57;;;5.13;;
53519;SDS011;39397;53.204;5.778;2022-09-21T01:38:47;12.43;;;4.82;;
53519;SDS011;39397;53.204;5.778;2022-09-21T01:41:16;11.93;;;5.47;;
53519;SDS011;39397;53.204;5.778;2022-09-21T01:43:47;13.55;;;4.65;;
53519;SDS011;39397;53.204;5.778;2022-09-21T01:46:18;17.95;;;5.93;;
53519;SDS011;39397;53.204;5.778;2022-09-21T01:48:46;11.27;;;4.28;;
53519;SDS011;39397;53.204;5.778;2022-09-21T01:51:16;9.60;;;4.30;;
53519;SDS011;39397;53.204;5.778;2022-09-21T01:53:47;12.18;;;5.15;;
53519;SDS011;39397;53.204;5.778;2022-09-21T01:56:21;14.63;;;5.10;;
53519;SDS011;39397;53.204;5.778;2022-09-21T02:01:45;11.45;;;5.20;;
53519;SDS011;39397;53.204;5.778;2022-09-21T02:04:21;11.32;;;5.28;;
53519;SDS011;39397;53.204;5.778;2022-09-21T02:06:47;14.13;;;5.20;;
53519;SDS011;39397;53.204;5.778;2022-09-21T02:09:14;13.68;;;5.03;;
53519;SDS011;39397;53.204;5.778;2022-09-21T02:11:42;9.38;;;5.53;;
53519;SDS011;39397;53.204;5.778;2022-09-21T02:14:10;10.75;;;4.60;;
53519;SDS011;39397;53.204;5.778;2022-09-21T02:16:43;11.77;;;4.93;;
53519;SDS011;39397;53.204;5.778;2022-09-21T02:24:54;11.85;;;4.57;;
53519;SDS011;39397;53.204;5.778;2022-09-21T02:32:29;12.60;;;4.82;;
53519;SDS011;39397;53.204;5.778;2022-09-21T02:40:38;8.43;;;4.63;;
53519;SDS011;39397;53.204;5.778;2022-09-21T02:43:07;10.60;;;4.60;;
53519;SDS011;39397;53.204;5.778;2022-09-21T02:46:02;12.35;;;4.68;;
53519;SDS011;39397;53.204;5.778;2022-09-21T02:48:36;11.18;;;5.03;;
53519;SDS011;39397;53.204;5.778;2022-09-21T02:51:09;8.70;;;4.35;;
53519;SDS011;39397;53.204;5.778;2022-09-21T02:53:39;17.67;;;10.23;;
53519;SDS011;39397;53.204;5.778;2022-09-21T02:56:07;12.02;;;5.70;;
53519;SDS011;39397;53.204;5.778;2022-09-21T02:58:43;12.18;;;5.70;;
53519;SDS011;39397;53.204;5.778;2022-09-21T03:01:18;9.60;;;4.57;;
53519;SDS011;39397;53.204;5.778;2022-09-21T03:03:45;14.43;;;5.10;;
53519;SDS011;39397;53.204;5.778;2022-09-21T03:06:11;9.73;;;4.57;;
53519;SDS011;39397;53.204;5.778;2022-09-21T03:08:37;12.48;;;4.35;;
53519;SDS011;39397;53.204;5.778;2022-09-21T03:11:03;9.27;;;4.78;;
53519;SDS011;39397;53.204;5.778;2022-09-21T03:13:29;14.25;;;5.03;;
53519;SDS011;39397;53.204;5.778;2022-09-21T03:16:04;9.23;;;4.53;;
53519;SDS011;39397;53.204;5.778;2022-09-21T03:18:31;11.52;;;4.90;;
53519;SDS011;39397;53.204;5.778;2022-09-21T03:20:57;10.35;;;5.25;;
53519;SDS011;39397;53.204;5.778;2022-09-21T03:23:24;16.85;;;8.85;;
53519;SDS011;39397;53.204;5.778;2022-09-21T03:25:50;16.02;;;8.25;;
53519;SDS011;39397;53.204;5.778;2022-09-21T03:28:16;12.05;;;6.30;;
53519;SDS011;39397;53.204;5.778;2022-09-21T03:30:42;12.68;;;5.20;;
53519;SDS011;39397;53.204;5.778;2022-09-21T03:33:08;12.65;;;5.05;;
53519;SDS011;39397;53.204;5.778;2022-09-21T03:35:35;17.08;;;5.43;;
53519;SDS011;39397;53.204;5.778;2022-09-21T03:38:01;10.25;;;5.03;;
53519;SDS011;39397;53.204;5.778;2022-09-21T03:40:27;14.27;;;4.63;;
53519;SDS011;39397;53.204;5.778;2022-09-21T03:42:53;10.00;;;5.10;;
53519;SDS011;39397;53.204;5.778;2022-09-21T03:45:19;13.15;;;5.68;;
53519;SDS011;39397;53.204;5.778;2022-09-21T03:47:55;12.20;;;4.93;;
53519;SDS011;39397;53.204;5.778;2022-09-21T03:50:23;12.27;;;5.15;;
53519;SDS011;39397;53.204;5.778;2022-09-21T03:52:49;11.88;;;5.00;;
53519;SDS011;39397;53.204;5.778;2022-09-21T03:55:15;10.57;;;5.40;;
53519;SDS011;39397;53.204;5.778;2022-09-21T03:57:41;11.85;;;5.40;;
53519;SDS011;39397;53.204;5.778;2022-09-21T04:00:08;12.15;;;5.07;;
53519;SDS011;39397;53.204;5.778;2022-09-21T04:02:35;14.52;;;5.18;;
53519;SDS011;39397;53.204;5.778;2022-09-21T04:05:02;15.93;;;5.55;;
53519;SDS011;39397;53.204;5.778;2022-09-21T04:07:31;13.48;;;5.07;;
53519;SDS011;39397;53.204;5.778;2022-09-21T04:10:02;12.82;;;5.38;;
53519;SDS011;39397;53.204;5.778;2022-09-21T04:12:30;13.85;;;5.70;;
53519;SDS011;39397;53.204;5.778;2022-09-21T04:14:58;14.15;;;6.38;;
53519;SDS011;39397;53.204;5.778;2022-09-21T04:17:25;14.35;;;6.32;;
53519;SDS011;39397;53.204;5.778;2022-09-21T04:19:51;15.02;;;5.97;;
53519;SDS011;39397;53.204;5.778;2022-09-21T04:22:17;11.63;;;5.82;;
53519;SDS011;39397;53.204;5.778;2022-09-21T04:24:43;13.02;;;6.20;;
53519;SDS011;39397;53.204;5.778;2022-09-21T04:27:09;15.95;;;5.95;;
53519;SDS011;39397;53.204;5.778;2022-09-21T04:29:36;12.75;;;5.35;;
53519;SDS011;39397;53.204;5.778;2022-09-21T04:32:02;13.18;;;4.95;;
53519;SDS011;39397;53.204;5.778;2022-09-21T04:34:29;16.08;;;5.63;;
53519;SDS011;39397;53.204;5.778;2022-09-21T04:36:55;10.65;;;4.97;;
53519;SDS011;39397;53.204;5.778;2022-09-21T04:39:22;8.80;;;4.18;;
53519;SDS011;39397;53.204;5.778;2022-09-21T04:41:49;8.65;;;4.25;;
53519;SDS011;39397;53.204;5.778;2022-09-21T04:44:15;10.32;;;4.45;;
53519;SDS011;39397;53.204;5.778;2022-09-21T04:46:42;9.27;;;4.45;;
53519;SDS011;39397;53.204;5.778;2022-09-21T04:49:08;13.40;;;4.68;;
53519;SDS011;39397;53.204;5.778;2022-09-21T04:51:34;13.73;;;4.35;;
53519;SDS011;39397;53.204;5.778;2022-09-21T04:54:01;10.63;;;5.00;;
53519;SDS011;39397;53.204;5.778;2022-09-21T04:56:27;12.40;;;7.43;;
53519;SDS011;39397;53.204;5.778;2022-09-21T04:58:53;9.80;;;5.60;;
53519;SDS011;39397;53.204;5.778;2022-09-21T05:01:19;8.20;;;4.18;;
53519;SDS011;39397;53.204;5.778;2022-09-21T05:03:44;13.02;;;4.20;;
53519;SDS011;39397;53.204;5.778;2022-09-21T05:06:10;11.95;;;4.55;;
53519;SDS011;39397;53.204;5.778;2022-09-21T05:08:37;10.02;;;4.05;;
53519;SDS011;39397;53.204;5.778;2022-09-21T05:11:22;26.00;;;12.05;;
53519;SDS011;39397;53.204;5.778;2022-09-21T05:13:49;11.27;;;4.82;;
53519;SDS011;39397;53.204;5.778;2022-09-21T05:16:15;9.13;;;4.43;;
53519;SDS011;39397;53.204;5.778;2022-09-21T05:18:42;9.50;;;4.15;;
53519;SDS011;39397;53.204;5.778;2022-09-21T05:21:08;13.05;;;4.53;;
53519;SDS011;39397;53.204;5.778;2022-09-21T05:23:35;10.40;;;4.03;;
53519;SDS011;39397;53.204;5.778;2022-09-21T05:26:01;9.07;;;4.18;;
53519;SDS011;39397;53.204;5.778;2022-09-21T05:28:27;11.32;;;4.00;;
53519;SDS011;39397;53.204;5.778;2022-09-21T05:31:17;9.57;;;3.83;;
53519;SDS011;39397;53.204;5.778;2022-09-21T05:39:01;9.73;;;3.45;;
53519;SDS011;39397;53.204;5.778;2022-09-21T05:41:27;11.35;;;4.00;;
53519;SDS011;39397;53.204;5.778;2022-09-21T05:43:53;12.35;;;4.40;;
53519;SDS011;39397;53.204;5.778;2022-09-21T05:51:52;16.30;;;4.63;;
53519;SDS011;39397;53.204;5.778;2022-09-21T06:05:12;16.88;;;6.00;;
53519;SDS011;39397;53.204;5.778;2022-09-21T06:07:39;9.75;;;3.90;;
53519;SDS011;39397;53.204;5.778;2022-09-21T06:10:08;11.05;;;4.55;;
53519;SDS011;39397;53.204;5.778;2022-09-21T06:12:36;19.52;;;5.20;;
53519;SDS011;39397;53.204;5.778;2022-09-21T06:15:02;12.90;;;4.28;;
53519;SDS011;39397;53.204;5.778;2022-09-21T06:17:28;15.68;;;4.75;;
53519;SDS011;39397;53.204;5.778;2022-09-21T06:19:54;12.55;;;4.38;;
53519;SDS011;39397;53.204;5.778;2022-09-21T06:22:20;12.85;;;5.00;;
53519;SDS011;39397;53.204;5.778;2022-09-21T06:24:45;13.27;;;4.57;;
53519;SDS011;39397;53.204;5.778;2022-09-21T06:27:11;15.98;;;4.55;;
53519;SDS011;39397;53.204;5.778;2022-09-21T06:29:37;10.63;;;3.60;;
53519;SDS011;39397;53.204;5.778;2022-09-21T06:32:03;14.10;;;4.10;;
53519;SDS011;39397;53.204;5.778;2022-09-21T06:34:29;11.40;;;3.50;;
53519;SDS011;39397;53.204;5.778;2022-09-21T06:36:55;11.75;;;3.65;;
53519;SDS011;39397;53.204;5.778;2022-09-21T06:39:21;15.13;;;3.80;;
53519;SDS011;39397;53.204;5.778;2022-09-21T06:41:46;13.52;;;3.35;;
53519;SDS011;39397;53.204;5.778;2022-09-21T06:44:12;10.90;;;3.92;;
53519;SDS011;39397;53.204;5.778;2022-09-21T06:46:38;16.45;;;4.25;;
53519;SDS011;39397;53.204;5.778;2022-09-21T06:49:03;9.93;;;3.40;;
53519;SDS011;39397;53.204;5.778;2022-09-21T06:51:32;7.70;;;3.13;;
53519;SDS011;39397;53.204;5.778;2022-09-21T06:53:58;11.57;;;2.70;;
53519;SDS011;39397;53.204;5.778;2022-09-21T06:56:24;13.02;;;2.88;;
53519;SDS011;39397;53.204;5.778;2022-09-21T06:58:50;10.75;;;2.50;;
53519;SDS011;39397;53.204;5.778;2022-09-21T07:01:16;11.05;;;2.92;;
53519;SDS011;39397;53.204;5.778;2022-09-21T07:03:43;14.07;;;3.25;;
53519;SDS011;39397;53.204;5.778;2022-09-21T07:06:09;10.55;;;2.53;;
53519;SDS011;39397;53.204;5.778;2022-09-21T07:08:38;11.80;;;2.40;;
53519;SDS011;39397;53.204;5.778;2022-09-21T07:11:04;7.70;;;2.17;;
53519;SDS011;39397;53.204;5.778;2022-09-21T07:13:30;12.38;;;2.40;;
53519;SDS011;39397;53.204;5.778;2022-09-21T07:15:56;6.85;;;2.40;;
53519;SDS011;39397;53.204;5.778;2022-09-21T07:18:22;8.95;;;2.40;;
53519;SDS011;39397;53.204;5.778;2022-09-21T07:20:48;8.52;;;1.95;;
53519;SDS011;39397;53.204;5.778;2022-09-21T07:23:14;10.10;;;2.30;;
53519;SDS011;39397;53.204;5.778;2022-09-21T07:25:42;9.55;;;2.17;;
53519;SDS011;39397;53.204;5.778;2022-09-21T07:28:09;16.23;;;2.25;;
53519;SDS011;39397;53.204;5.778;2022-09-21T07:30:36;10.57;;;2.00;;
53519;SDS011;39397;53.204;5.778;2022-09-21T07:33:04;10.88;;;2.08;;
53519;SDS011;39397;53.204;5.778;2022-09-21T07:35:31;10.75;;;1.92;;
53519;SDS011;39397;53.204;5.778;2022-09-21T07:38:00;8.45;;;1.90;;
53519;SDS011;39397;53.204;5.778;2022-09-21T07:40:27;6.53;;;1.80;;
53519;SDS011;39397;53.204;5.778;2022-09-21T07:43:00;9.63;;;2.10;;
53519;SDS011;39397;53.204;5.778;2022-09-21T07:45:27;10.63;;;2.58;;
53519;SDS011;39397;53.204;5.778;2022-09-21T07:47:55;15.45;;;2.53;;
53519;SDS011;39397;53.204;5.778;2022-09-21T07:50:26;7.65;;;1.70;;
53519;SDS011;39397;53.204;5.778;2022-09-21T07:52:51;10.45;;;2.95;;
53519;SDS011;39397;53.204;5.778;2022-09-21T07:55:17;6.05;;;2.10;;
53519;SDS011;39397;53.204;5.778;2022-09-21T07:57:43;5.22;;;1.50;;
53519;SDS011;39397;53.204;5.778;2022-09-21T08:00:27;4.93;;;1.70;;
53519;SDS011;39397;53.204;5.778;2022-09-21T08:02:56;5.63;;;1.60;;
53519;SDS011;39397;53.204;5.778;2022-09-21T08:05:23;8.23;;;1.80;;
53519;SDS011;39397;53.204;5.778;2022-09-21T08:07:48;5.28;;;1.52;;
53519;SDS011;39397;53.204;5.778;2022-09-21T08:10:14;7.15;;;1.80;;
53519;SDS011;39397;53.204;5.778;2022-09-21T08:12:40;4.93;;;1.50;;
53519;SDS011;39397;53.204;5.778;2022-09-21T08:15:08;5.43;;;1.27;;
53519;SDS011;39397;53.204;5.778;2022-09-21T08:17:36;10.15;;;1.70;;
53519;SDS011;39397;53.204;5.778;2022-09-21T08:20:02;7.40;;;1.67;;
53519;SDS011;39397;53.204;5.778;2022-09-21T08:22:28;9.05;;;1.45;;
53519;SDS011;39397;53.204;5.778;2022-09-21T08:24:53;4.95;;;2.17;;
53519;SDS011;39397;53.204;5.778;2022-09-21T08:27:20;7.15;;;1.70;;
53519;SDS011;39397;53.204;5.778;2022-09-21T08:29:45;5.82;;;1.30;;
53519;SDS011;39397;53.204;5.778;2022-09-21T08:32:11;6.50;;;1.00;;
53519;SDS011;39397;53.204;5.778;2022-09-21T08:34:36;6.50;;;1.30;;
53519;SDS011;39397;53.204;5.778;2022-09-21T08:37:02;5.13;;;1.38;;
53519;SDS011;39397;53.204;5.778;2022-09-21T08:39:28;8.60;;;1.20;;
53519;SDS011;39397;53.204;5.778;2022-09-21T08:44:50;4.40;;;1.10;;
53519;SDS011;39397;53.204;5.778;2022-09-21T08:47:23;8.02;;;1.00;;
53519;SDS011;39397;53.204;5.778;2022-09-21T08:50:00;8.88;;;2.33;;
53519;SDS011;39397;53.204;5.778;2022-09-21T08:52:27;9.15;;;1.45;;
53519;SDS011;39397;53.204;5.778;2022-09-21T08:54:54;8.13;;;1.40;;
53519;SDS011;39397;53.204;5.778;2022-09-21T08:57:30;6.38;;;1.10;;
53519;SDS011;39397;53.204;5.778;2022-09-21T08:59:58;5.78;;;1.08;;
53519;SDS011;39397;53.204;5.778;2022-09-21T09:17:10;7.28;;;0.90;;
53519;SDS011;39397;53.204;5.778;2022-09-21T09:19:40;5.43;;;1.38;;
53519;SDS011;39397;53.204;5.778;2022-09-21T09:22:14;5.47;;;0.82;;
53519;SDS011;39397;53.204;5.778;2022-09-21T09:24:49;5.07;;;1.15;;
53519;SDS011;39397;53.204;5.778;2022-09-21T09:27:32;6.63;;;1.00;;
53519;SDS011;39397;53.204;5.778;2022-09-21T09:35:47;7.13;;;0.95;;
53519;SDS011;39397;53.204;5.778;2022-09-21T09:38:18;4.97;;;1.10;;
53519;SDS011;39397;53.204;5.778;2022-09-21T09:51:41;6.32;;;0.90;;
53519;SDS011;39397;53.204;5.778;2022-09-21T09:54:11;5.47;;;1.02;;
53519;SDS011;39397;53.204;5.778;2022-09-21T09:56:40;4.75;;;0.77;;
53519;SDS011;39397;53.204;5.778;2022-09-21T09:59:09;7.65;;;1.23;;
53519;SDS011;39397;53.204;5.778;2022-09-21T10:01:45;5.32;;;0.98;;
53519;SDS011;39397;53.204;5.778;2022-09-21T10:04:24;6.53;;;1.10;;
53519;SDS011;39397;53.204;5.778;2022-09-21T10:06:49;4.50;;;0.82;;
53519;SDS011;39397;53.204;5.778;2022-09-21T10:09:19;5.85;;;0.90;;
53519;SDS011;39397;53.204;5.778;2022-09-21T10:11:47;4.53;;;0.90;;
53519;SDS011;39397;53.204;5.778;2022-09-21T10:14:15;3.53;;;0.65;;
53519;SDS011;39397;53.204;5.778;2022-09-21T10:16:47;3.90;;;0.70;;
53519;SDS011;39397;53.204;5.778;2022-09-21T10:19:21;4.82;;;0.63;;
53519;SDS011;39397;53.204;5.778;2022-09-21T10:21:56;6.07;;;0.80;;
53519;SDS011;39397;53.204;5.778;2022-09-21T10:24:30;4.40;;;0.80;;
53519;SDS011;39397;53.204;5.778;2022-09-21T10:27:10;4.82;;;0.70;;
53519;SDS011;39397;53.204;5.778;2022-09-21T10:34:39;4.13;;;1.33;;
53519;SDS011;39397;53.204;5.778;2022-09-21T10:39:52;4.47;;;1.10;;
53519;SDS011;39397;53.204;5.778;2022-09-21T10:42:18;5.55;;;0.95;;
53519;SDS011;39397;53.204;5.778;2022-09-21T10:44:46;9.38;;;1.55;;
53519;SDS011;39397;53.204;5.778;2022-09-21T10:47:21;5.63;;;1.65;;
53519;SDS011;39397;53.204;5.778;2022-09-21T10:50:07;4.85;;;0.82;;
53519;SDS011;39397;53.204;5.778;2022-09-21T10:52:47;2.92;;;0.60;;
53519;SDS011;39397;53.204;5.778;2022-09-21T10:55:16;5.05;;;0.82;;
53519;SDS011;39397;53.204;5.778;2022-09-21T10:57:44;4.90;;;0.73;;
53519;SDS011;39397;53.204;5.778;2022-09-21T11:02:49;3.83;;;0.65;;
53519;SDS011;39397;53.204;5.778;2022-09-21T11:05:17;5.32;;;1.17;;
53519;SDS011;39397;53.204;5.778;2022-09-21T11:08:11;4.40;;;0.98;;
53519;SDS011;39397;53.204;5.778;2022-09-21T11:21:34;3.25;;;0.80;;
53519;SDS011;39397;53.204;5.778;2022-09-21T11:27:08;4.80;;;1.30;;
53519;SDS011;39397;53.204;5.778;2022-09-21T11:35:42;3.65;;;0.50;;
53519;SDS011;39397;53.204;5.778;2022-09-21T11:46:26;3.40;;;0.73;;
53519;SDS011;39397;53.204;5.778;2022-09-21T11:56:57;3.80;;;0.60;;
53519;SDS011;39397;53.204;5.778;2022-09-21T12:18:59;5.65;;;0.90;;
53519;SDS011;39397;53.204;5.778;2022-09-21T12:21:39;4.13;;;0.88;;
53519;SDS011;39397;53.204;5.778;2022-09-21T12:24:17;4.47;;;0.68;;
53519;SDS011;39397;53.204;5.778;2022-09-21T12:26:52;4.00;;;0.55;;
53519;SDS011;39397;53.204;5.778;2022-09-21T12:29:32;2.22;;;0.55;;
53519;SDS011;39397;53.204;5.778;2022-09-21T12:35:02;3.30;;;0.60;;
53519;SDS011;39397;53.204;5.778;2022-09-21T12:37:39;5.50;;;0.63;;
53519;SDS011;39397;53.204;5.778;2022-09-21T12:40:20;2.45;;;0.60;;
53519;SDS011;39397;53.204;5.778;2022-09-21T12:43:16;3.78;;;1.00;;
53519;SDS011;39397;53.204;5.778;2022-09-21T12:46:30;2.17;;;0.50;;
53519;SDS011;39397;53.204;5.778;2022-09-21T12:49:00;3.03;;;0.73;;
53519;SDS011;39397;53.204;5.778;2022-09-21T12:51:38;2.75;;;0.68;;
53519;SDS011;39397;53.204;5.778;2022-09-21T12:54:11;3.63;;;0.60;;
53519;SDS011;39397;53.204;5.778;2022-09-21T12:59:42;6.05;;;1.42;;
53519;SDS011;39397;53.204;5.778;2022-09-21T13:07:56;3.63;;;0.60;;
53519;SDS011;39397;53.204;5.778;2022-09-21T13:16:21;4.82;;;0.98;;
53519;SDS011;39397;53.204;5.778;2022-09-21T13:18:56;3.38;;;0.98;;
53519;SDS011;39397;53.204;5.778;2022-09-21T13:21:25;3.35;;;0.80;;
53519;SDS011;39397;53.204;5.778;2022-09-21T13:24:04;3.30;;;0.80;;
53519;SDS011;39397;53.204;5.778;2022-09-21T13:29:26;6.40;;;1.00;;
53519;SDS011;39397;53.204;5.778;2022-09-21T13:31:52;3.75;;;0.55;;
53519;SDS011;39397;53.204;5.778;2022-09-21T13:39:44;4.90;;;0.70;;
53519;SDS011;39397;53.204;5.778;2022-09-21T13:44:55;4.22;;;0.77;;
53519;SDS011;39397;53.204;5.778;2022-09-21T13:47:42;4.30;;;0.80;;
53519;SDS011;39397;53.204;5.778;2022-09-21T13:50:10;5.22;;;0.65;;
53519;SDS011;39397;53.204;5.778;2022-09-21T13:53:00;3.78;;;0.57;;
53519;SDS011;39397;53.204;5.778;2022-09-21T13:55:30;3.00;;;0.60;;
53519;SDS011;39397;53.204;5.778;2022-09-21T13:57:59;4.00;;;0.80;;
53519;SDS011;39397;53.204;5.778;2022-09-21T14:01:00;6.35;;;0.88;;
53519;SDS011;39397;53.204;5.778;2022-09-21T14:06:05;2.90;;;0.60;;
53519;SDS011;39397;53.204;5.778;2022-09-21T14:08:32;5.03;;;0.98;;
53519;SDS011;39397;53.204;5.778;2022-09-21T14:13:34;6.13;;;1.00;;
53519;SDS011;39397;53.204;5.778;2022-09-21T14:24:36;2.65;;;0.70;;
53519;SDS011;39397;53.204;5.778;2022-09-21T14:27:24;6.53;;;1.25;;
53519;SDS011;39397;53.204;5.778;2022-09-21T14:29:55;5.90;;;1.30;;
53519;SDS011;39397;53.204;5.778;2022-09-21T14:32:41;3.35;;;0.90;;
53519;SDS011;39397;53.204;5.778;2022-09-21T14:35:21;6.65;;;0.93;;
53519;SDS011;39397;53.204;5.778;2022-09-21T14:37:49;5.28;;;0.80;;
53519;SDS011;39397;53.204;5.778;2022-09-21T14:40:38;5.70;;;1.38;;
53519;SDS011;39397;53.204;5.778;2022-09-21T14:43:14;6.85;;;1.33;;
53519;SDS011;39397;53.204;5.778;2022-09-21T14:48:40;4.57;;;0.82;;
53519;SDS011;39397;53.204;5.778;2022-09-21T14:51:18;3.30;;;1.00;;
53519;SDS011;39397;53.204;5.778;2022-09-21T14:56:55;5.53;;;0.73;;
53519;SDS011;39397;53.204;5.778;2022-09-21T15:00:09;6.15;;;1.00;;
53519;SDS011;39397;53.204;5.778;2022-09-21T15:02:39;5.00;;;0.80;;
53519;SDS011;39397;53.204;5.778;2022-09-21T15:05:17;4.85;;;0.90;;
53519;SDS011;39397;53.204;5.778;2022-09-21T15:13:41;4.47;;;1.00;;
53519;SDS011;39397;53.204;5.778;2022-09-21T15:22:15;4.15;;;0.88;;
53519;SDS011;39397;53.204;5.778;2022-09-21T15:24:50;3.55;;;0.68;;
53519;SDS011;39397;53.204;5.778;2022-09-21T15:27:25;2.45;;;0.70;;
53519;SDS011;39397;53.204;5.778;2022-09-21T15:29:56;5.63;;;1.40;;
53519;SDS011;39397;53.204;5.778;2022-09-21T15:35:03;4.80;;;0.70;;
53519;SDS011;39397;53.204;5.778;2022-09-21T15:37:44;4.95;;;0.85;;
53519;SDS011;39397;53.204;5.778;2022-09-21T15:40:19;5.85;;;1.45;;
53519;SDS011;39397;53.204;5.778;2022-09-21T15:45:50;5.50;;;0.93;;
53519;SDS011;39397;53.204;5.778;2022-09-21T15:48:23;3.97;;;0.98;;
53519;SDS011;39397;53.204;5.778;2022-09-21T15:50:54;4.30;;;1.00;;
53519;SDS011;39397;53.204;5.778;2022-09-21T15:53:30;3.95;;;1.00;;
53519;SDS011;39397;53.204;5.778;2022-09-21T15:55:58;4.50;;;1.05;;
53519;SDS011;39397;53.204;5.778;2022-09-21T15:58:35;6.25;;;0.88;;
53519;SDS011;39397;53.204;5.778;2022-09-21T16:01:03;4.30;;;0.70;;
53519;SDS011;39397;53.204;5.778;2022-09-21T16:03:35;4.72;;;1.15;;
53519;SDS011;39397;53.204;5.778;2022-09-21T16:06:00;4.95;;;0.82;;
53519;SDS011;39397;53.204;5.778;2022-09-21T16:08:47;3.50;;;0.70;;
53519;SDS011;39397;53.204;5.778;2022-09-21T16:11:17;2.80;;;1.00;;
53519;SDS011;39397;53.204;5.778;2022-09-21T16:13:59;4.65;;;1.00;;
53519;SDS011;39397;53.204;5.778;2022-09-21T16:22:13;2.80;;;0.70;;
53519;SDS011;39397;53.204;5.778;2022-09-21T16:24:44;4.45;;;0.80;;
53519;SDS011;39397;53.204;5.778;2022-09-21T16:27:18;3.40;;;0.80;;
53519;SDS011;39397;53.204;5.778;2022-09-21T16:29:47;5.55;;;0.98;;
53519;SDS011;39397;53.204;5.778;2022-09-21T16:34:46;6.88;;;1.30;;
53519;SDS011;39397;53.204;5.778;2022-09-21T16:39:47;8.88;;;1.73;;
53519;SDS011;39397;53.204;5.778;2022-09-21T16:42:13;4.68;;;1.10;;
53519;SDS011;39397;53.204;5.778;2022-09-21T16:44:40;5.38;;;0.98;;
53519;SDS011;39397;53.204;5.778;2022-09-21T16:47:13;7.03;;;1.02;;
53519;SDS011;39397;53.204;5.778;2022-09-21T16:49:40;6.50;;;1.25;;
53519;SDS011;39397;53.204;5.778;2022-09-21T16:52:06;4.05;;;0.77;;
53519;SDS011;39397;53.204;5.778;2022-09-21T16:54:32;3.53;;;0.70;;
53519;SDS011;39397;53.204;5.778;2022-09-21T16:57:01;3.85;;;0.80;;
53519;SDS011;39397;53.204;5.778;2022-09-21T16:59:27;3.08;;;0.80;;
53519;SDS011;39397;53.204;5.778;2022-09-21T17:01:54;5.82;;;0.90;;
53519;SDS011;39397;53.204;5.778;2022-09-21T17:04:23;6.15;;;0.98;;
53519;SDS011;39397;53.204;5.778;2022-09-21T17:06:53;6.75;;;1.10;;
53519;SDS011;39397;53.204;5.778;2022-09-21T17:09:21;3.13;;;0.80;;
53519;SDS011;39397;53.204;5.778;2022-09-21T17:11:48;5.13;;;0.82;;
53519;SDS011;39397;53.204;5.778;2022-09-21T17:14:15;5.60;;;0.85;;
53519;SDS011;39397;53.204;5.778;2022-09-21T17:16:52;4.05;;;0.75;;
53519;SDS011;39397;53.204;5.778;2022-09-21T17:19:20;5.85;;;0.77;;
53519;SDS011;39397;53.204;5.778;2022-09-21T17:21:46;7.05;;;1.13;;
53519;SDS011;39397;53.204;5.778;2022-09-21T17:24:13;5.68;;;0.77;;
53519;SDS011;39397;53.204;5.778;2022-09-21T17:26:40;6.63;;;1.15;;
53519;SDS011;39397;53.204;5.778;2022-09-21T17:29:19;7.00;;;1.05;;
53519;SDS011;39397;53.204;5.778;2022-09-21T17:31:47;6.90;;;1.08;;
53519;SDS011;39397;53.204;5.778;2022-09-21T17:34:21;8.88;;;1.20;;
53519;SDS011;39397;53.204;5.778;2022-09-21T17:36:49;9.02;;;1.45;;
53519;SDS011;39397;53.204;5.778;2022-09-21T17:39:15;5.40;;;0.98;;
53519;SDS011;39397;53.204;5.778;2022-09-21T17:44:29;5.43;;;0.85;;
53519;SDS011;39397;53.204;5.778;2022-09-21T17:49:37;4.82;;;0.88;;
53519;SDS011;39397;53.204;5.778;2022-09-21T17:52:04;8.52;;;1.85;;
53519;SDS011;39397;53.204;5.778;2022-09-21T17:55:02;8.40;;;1.63;;
53519;SDS011;39397;53.204;5.778;2022-09-21T17:58:21;8.50;;;2.10;;
53519;SDS011;39397;53.204;5.778;2022-09-21T18:00:43;6.25;;;1.60;;
53519;SDS011;39397;53.204;5.778;2022-09-21T18:03:24;5.90;;;1.50;;
53519;SDS011;39397;53.204;5.778;2022-09-21T18:05:52;7.28;;;1.45;;
53519;SDS011;39397;53.204;5.778;2022-09-21T18:08:25;6.50;;;1.23;;
53519;SDS011;39397;53.204;5.778;2022-09-21T18:16:24;5.25;;;1.50;;
53519;SDS011;39397;53.204;5.778;2022-09-21T18:19:03;8.18;;;1.65;;
53519;SDS011;39397;53.204;5.778;2022-09-21T18:21:53;9.68;;;1.58;;
53519;SDS011;39397;53.204;5.778;2022-09-21T18:24:25;9.98;;;1.70;;
53519;SDS011;39397;53.204;5.778;2022-09-21T18:26:52;9.50;;;2.10;;
53519;SDS011;39397;53.204;5.778;2022-09-21T18:29:23;8.02;;;2.00;;
53519;SDS011;39397;53.204;5.778;2022-09-21T18:37:44;10.57;;;2.42;;
53519;SDS011;39397;53.204;5.778;2022-09-21T18:45:38;12.00;;;2.92;;
53519;SDS011;39397;53.204;5.778;2022-09-21T18:50:55;9.65;;;3.08;;
53519;SDS011;39397;53.204;5.778;2022-09-21T18:53:31;6.22;;;2.20;;
53519;SDS011;39397;53.204;5.778;2022-09-21T18:55:59;8.75;;;2.60;;
53519;SDS011;39397;53.204;5.778;2022-09-21T18:58:25;7.95;;;2.38;;
53519;SDS011;39397;53.204;5.778;2022-09-21T19:00:51;10.18;;;2.47;;
53519;SDS011;39397;53.204;5.778;2022-09-21T19:03:17;9.40;;;2.20;;
53519;SDS011;39397;53.204;5.778;2022-09-21T19:05:49;14.65;;;7.88;;
53519;SDS011;39397;53.204;5.778;2022-09-21T19:08:43;11.80;;;6.78;;
53519;SDS011;39397;53.204;5.778;2022-09-21T19:22:48;10.13;;;2.60;;
53519;SDS011;39397;53.204;5.778;2022-09-21T19:30:47;10.95;;;2.80;;
53519;SDS011;39397;53.204;5.778;2022-09-21T19:33:19;7.85;;;2.30;;
53519;SDS011;39397;53.204;5.778;2022-09-21T19:35:51;10.43;;;2.60;;
53519;SDS011;39397;53.204;5.778;2022-09-21T19:38:17;9.82;;;2.40;;
53519;SDS011;39397;53.204;5.778;2022-09-21T19:40:44;9.25;;;2.63;;